createdAt,value
2017-03-20T00:00:01.267Z,9.97
2017-03-20T00:00:41.921Z,10.01
2017-03-20T00:01:22.567Z,9.98
2017-03-20T00:02:03.265Z,9.94
2017-03-20T00:02:44.894Z,10.04
2017-03-20T00:03:25.568Z,10.02
2017-03-20T00:04:06.197Z,10.02
2017-03-20T00:04:46.805Z,9.94
2017-03-20T00:05:27.491Z,10.02
2017-03-20T00:06:08.069Z,10.02
2017-03-20T00:06:49.723Z,10.02
2017-03-20T00:07:30.318Z,10.01
2017-03-20T00:08:10.922Z,9.99
2017-03-20T00:08:51.518Z,10.01
2017-03-20T00:09:32.147Z,9.94
2017-03-20T00:10:12.823Z,9.97
2017-03-20T00:10:53.450Z,9.99
2017-03-20T00:11:34.130Z,10.01
2017-03-20T00:12:14.779Z,10.04
2017-03-20T00:12:55.412Z,9.98
2017-03-20T00:13:36.061Z,10.07
2017-03-20T00:14:16.720Z,10.01
2017-03-20T00:14:57.311Z,10.04
2017-03-20T00:15:37.897Z,9.98
2017-03-20T00:16:18.476Z,9.98
2017-03-20T00:16:59.114Z,9.98
2017-03-20T00:17:39.712Z,10.01
2017-03-20T00:18:20.303Z,9.99
2017-03-20T00:19:00.878Z,9.97
2017-03-20T00:19:41.542Z,9.97
2017-03-20T00:20:22.247Z,9.99
2017-03-20T00:21:02.836Z,10.02
2017-03-20T00:21:43.505Z,9.99
2017-03-20T00:22:24.145Z,10.07
2017-03-20T00:23:04.788Z,9.98
2017-03-20T00:23:45.468Z,9.97
2017-03-20T00:24:26.071Z,9.94
2017-03-20T00:25:06.680Z,9.97
2017-03-20T00:25:47.279Z,9.95
2017-03-20T00:26:27.872Z,9.94
2017-03-20T00:27:08.510Z,9.98
2017-03-20T00:27:49.084Z,10.02
2017-03-20T00:28:29.684Z,9.98
2017-03-20T00:29:10.265Z,9.99
2017-03-20T00:29:51.913Z,9.95
2017-03-20T00:30:32.517Z,9.98
2017-03-20T00:31:13.115Z,9.97
2017-03-20T00:31:53.693Z,9.95
2017-03-20T00:32:34.347Z,9.99
2017-03-20T00:33:14.923Z,9.92
2017-03-20T00:33:55.522Z,9.98
2017-03-20T00:34:36.109Z,9.95
2017-03-20T00:35:17.777Z,9.95
2017-03-20T00:35:58.356Z,9.94
2017-03-20T00:36:38.952Z,9.95
2017-03-20T00:37:19.537Z,9.98
2017-03-20T00:38:00.184Z,9.98
2017-03-20T00:38:40.870Z,9.95
2017-03-20T00:39:22.488Z,9.97
2017-03-20T00:40:03.138Z,9.99
2017-03-20T00:40:43.730Z,9.95
2017-03-20T00:41:24.371Z,9.95
2017-03-20T00:42:05.022Z,9.94
2017-03-20T00:42:46.702Z,9.95
2017-03-20T00:43:27.353Z,9.94
2017-03-20T00:44:07.980Z,9.94
2017-03-20T00:44:48.666Z,9.98
2017-03-20T00:45:29.314Z,10.02
2017-03-20T00:46:09.966Z,9.95
2017-03-20T00:46:50.553Z,9.94
2017-03-20T00:47:31.146Z,10.02
2017-03-20T00:48:11.718Z,9.95
2017-03-20T00:48:52.380Z,9.94
2017-03-20T00:49:33.026Z,9.95
2017-03-20T00:50:13.682Z,9.99
2017-03-20T00:50:54.330Z,9.94
2017-03-20T00:51:34.983Z,9.95
2017-03-20T00:52:16.663Z,9.95
2017-03-20T00:52:57.316Z,9.98
2017-03-20T00:53:37.971Z,9.89
2017-03-20T00:54:18.624Z,9.99
2017-03-20T00:54:59.282Z,10.02
2017-03-20T00:55:39.819Z,9.97
2017-03-20T00:56:21.501Z,9.95
2017-03-20T00:57:02.129Z,9.98
2017-03-20T00:57:42.707Z,9.98
2017-03-20T00:58:23.339Z,9.98
2017-03-20T00:59:03.986Z,9.91
2017-03-20T00:59:44.561Z,9.94
2017-03-20T01:00:25.218Z,9.98
2017-03-20T01:01:05.859Z,9.92
2017-03-20T01:01:47.536Z,9.95
2017-03-20T01:02:28.192Z,9.91
2017-03-20T01:03:08.853Z,9.94
2017-03-20T01:03:50.531Z,9.97
2017-03-20T01:04:31.184Z,9.92
2017-03-20T01:05:11.839Z,9.95
2017-03-20T01:05:52.480Z,9.95
2017-03-20T01:06:33.136Z,9.94
2017-03-20T01:07:13.784Z,9.99
2017-03-20T01:07:54.437Z,9.95
2017-03-20T01:08:36.024Z,9.99
2017-03-20T01:09:16.679Z,9.95
2017-03-20T01:09:59.262Z,9.99
2017-03-20T01:10:39.918Z,9.98
2017-03-20T01:11:20.585Z,9.97
2017-03-20T01:12:02.247Z,9.99
2017-03-20T01:12:42.898Z,9.97
2017-03-20T01:13:23.560Z,9.95
2017-03-20T01:14:04.214Z,9.95
2017-03-20T01:14:45.798Z,9.94
2017-03-20T01:15:26.441Z,9.99
2017-03-20T01:16:07.097Z,9.91
2017-03-20T01:16:47.748Z,9.97
2017-03-20T01:17:28.400Z,9.92
2017-03-20T01:18:09.054Z,9.97
2017-03-20T01:18:50.737Z,9.99
2017-03-20T01:19:31.381Z,9.98
2017-03-20T01:20:11.946Z,9.91
2017-03-20T01:20:52.497Z,9.97
2017-03-20T01:21:33.121Z,9.99
2017-03-20T01:22:13.766Z,9.98
2017-03-20T01:22:54.326Z,9.97
2017-03-20T01:23:34.982Z,9.98
2017-03-20T01:24:15.622Z,9.95
2017-03-20T01:24:58.233Z,9.97
2017-03-20T01:25:38.868Z,9.98
2017-03-20T01:26:20.551Z,9.97
2017-03-20T01:27:01.211Z,9.99
2017-03-20T01:27:41.851Z,9.99
2017-03-20T01:28:22.513Z,9.97
2017-03-20T01:29:03.162Z,9.98
2017-03-20T01:29:43.821Z,9.97
2017-03-20T01:30:24.465Z,9.94
2017-03-20T01:31:05.127Z,9.95
2017-03-20T01:31:45.782Z,9.94
2017-03-20T01:32:26.425Z,9.94
2017-03-20T01:33:07.085Z,10.01
2017-03-20T01:33:49.678Z,9.97
2017-03-20T01:34:32.385Z,9.95
2017-03-20T01:35:12.944Z,9.95
2017-03-20T01:35:53.636Z,9.99
2017-03-20T01:36:34.288Z,9.97
2017-03-20T01:37:14.889Z,9.99
2017-03-20T01:37:55.478Z,9.98
2017-03-20T01:38:36.116Z,10.01
2017-03-20T01:39:16.695Z,9.94
2017-03-20T01:39:57.294Z,9.94
2017-03-20T01:40:37.853Z,9.98
2017-03-20T01:41:18.511Z,10.02
2017-03-20T01:41:59.160Z,9.98
2017-03-20T01:42:39.851Z,9.95
2017-03-20T01:43:21.507Z,9.95
2017-03-20T01:44:02.161Z,9.92
2017-03-20T01:44:42.819Z,9.92
2017-03-20T01:45:23.391Z,9.95
2017-03-20T01:46:03.996Z,9.98
2017-03-20T01:46:44.600Z,9.92
2017-03-20T01:47:25.233Z,9.95
2017-03-20T01:48:05.901Z,9.99
2017-03-20T01:48:46.508Z,9.94
2017-03-20T01:49:27.072Z,9.97
2017-03-20T01:50:07.728Z,9.94
2017-03-20T01:50:48.378Z,9.95
2017-03-20T01:51:29.016Z,9.97
2017-03-20T01:52:09.669Z,9.95
2017-03-20T01:52:50.330Z,9.95
2017-03-20T01:53:30.992Z,9.94
2017-03-20T01:54:11.632Z,9.92
2017-03-20T01:54:52.308Z,9.99
2017-03-20T01:55:32.954Z,10.01
2017-03-20T01:56:13.606Z,9.97
2017-03-20T01:56:54.241Z,9.94
2017-03-20T01:57:34.902Z,9.98
2017-03-20T01:58:15.569Z,9.91
2017-03-20T01:58:56.198Z,9.95
2017-03-20T01:59:36.854Z,9.98
2017-03-20T02:00:17.513Z,9.98
2017-03-20T02:00:58.184Z,9.97
2017-03-20T02:01:38.826Z,9.97
2017-03-20T02:02:19.477Z,9.94
2017-03-20T02:03:00.127Z,9.87
2017-03-20T02:03:40.774Z,9.95
2017-03-20T02:04:21.424Z,9.91
2017-03-20T02:05:02.025Z,9.92
2017-03-20T02:05:42.625Z,9.89
2017-03-20T02:06:23.186Z,9.97
2017-03-20T02:07:03.841Z,9.86
2017-03-20T02:07:45.466Z,9.95
2017-03-20T02:08:26.055Z,9.95
2017-03-20T02:09:06.622Z,9.94
2017-03-20T02:09:47.263Z,9.94
2017-03-20T02:10:27.862Z,9.91
2017-03-20T02:11:08.461Z,9.86
2017-03-20T02:11:49.011Z,9.94
2017-03-20T02:12:29.685Z,9.95
2017-03-20T02:13:10.382Z,9.83
2017-03-20T02:13:50.972Z,9.89
2017-03-20T02:14:31.543Z,9.83
2017-03-20T02:15:12.200Z,9.89
2017-03-20T02:15:52.886Z,9.91
2017-03-20T02:16:33.481Z,9.82
2017-03-20T02:17:15.058Z,9.95
2017-03-20T02:17:55.731Z,9.84
2017-03-20T02:18:36.386Z,9.84
2017-03-20T02:19:17.014Z,9.87
2017-03-20T02:19:57.682Z,9.84
2017-03-20T02:20:38.294Z,9.91
2017-03-20T02:21:18.870Z,9.87
2017-03-20T02:21:59.433Z,9.84
2017-03-20T02:22:40.106Z,9.84
2017-03-20T02:23:20.793Z,9.82
2017-03-20T02:24:01.377Z,9.82
2017-03-20T02:24:41.930Z,9.84
2017-03-20T02:25:22.605Z,9.82
2017-03-20T02:26:03.234Z,9.87
2017-03-20T02:26:43.805Z,9.82
2017-03-20T02:27:24.459Z,9.82
2017-03-20T02:28:05.088Z,9.89
2017-03-20T02:28:45.669Z,9.91
2017-03-20T02:29:26.320Z,9.87
2017-03-20T02:30:06.947Z,9.89
2017-03-20T02:30:47.494Z,9.94
2017-03-20T02:31:29.078Z,9.83
2017-03-20T02:32:09.686Z,9.8
2017-03-20T02:32:50.276Z,9.87
2017-03-20T02:33:30.829Z,9.89
2017-03-20T02:34:11.480Z,9.84
2017-03-20T02:34:52.086Z,9.89
2017-03-20T02:35:32.754Z,9.89
2017-03-20T02:36:13.394Z,9.84
2017-03-20T02:36:54.057Z,9.83
2017-03-20T02:37:34.700Z,9.87
2017-03-20T02:38:15.362Z,9.84
2017-03-20T02:38:56.001Z,9.86
2017-03-20T02:39:36.668Z,9.86
2017-03-20T02:40:17.308Z,9.86
2017-03-20T02:40:59.910Z,9.87
2017-03-20T02:41:40.567Z,9.89
2017-03-20T02:42:21.212Z,9.89
2017-03-20T02:43:01.877Z,9.84
2017-03-20T02:43:47.434Z,9.86
2017-03-20T02:44:28.091Z,9.89
2017-03-20T02:45:08.761Z,9.87
2017-03-20T02:45:49.404Z,9.86
2017-03-20T02:46:30.050Z,9.94
2017-03-20T02:47:10.699Z,9.87
2017-03-20T02:47:51.360Z,9.87
2017-03-20T02:48:32.012Z,9.87
2017-03-20T02:49:12.668Z,9.84
2017-03-20T02:49:53.326Z,9.87
2017-03-20T02:50:33.910Z,9.87
2017-03-20T02:51:14.466Z,9.89
2017-03-20T02:51:55.125Z,9.83
2017-03-20T02:52:35.722Z,9.82
2017-03-20T02:53:18.359Z,9.86
2017-03-20T02:53:58.940Z,9.86
2017-03-20T02:54:39.596Z,9.83
2017-03-20T02:55:20.289Z,9.86
2017-03-20T02:56:00.876Z,9.87
2017-03-20T02:56:41.418Z,9.83
2017-03-20T02:57:22.109Z,9.8
2017-03-20T02:58:02.722Z,9.79
2017-03-20T02:58:43.394Z,9.83
2017-03-20T02:59:23.962Z,9.86
2017-03-20T03:00:04.630Z,9.87
2017-03-20T03:00:45.258Z,9.83
2017-03-20T03:01:26.009Z,9.84
2017-03-20T03:02:07.585Z,9.91
2017-03-20T03:02:49.495Z,9.92
2017-03-20T03:03:30.215Z,9.79
2017-03-20T03:04:11.940Z,9.87
2017-03-20T03:04:52.615Z,9.82
2017-03-20T03:05:33.213Z,9.83
2017-03-20T03:06:13.868Z,9.82
2017-03-20T03:06:54.520Z,9.84
2017-03-20T03:07:35.214Z,9.79
2017-03-20T03:08:15.827Z,9.77
2017-03-20T03:08:56.473Z,9.8
2017-03-20T03:09:37.118Z,9.84
2017-03-20T03:10:17.780Z,9.84
2017-03-20T03:10:58.428Z,9.91
2017-03-20T03:11:39.088Z,9.94
2017-03-20T03:12:19.736Z,9.84
2017-03-20T03:13:00.398Z,9.84
2017-03-20T03:13:41.049Z,9.82
2017-03-20T03:14:21.701Z,9.91
2017-03-20T03:15:02.346Z,9.83
2017-03-20T03:15:42.986Z,9.83
2017-03-20T03:16:23.551Z,9.84
2017-03-20T03:17:04.216Z,9.83
2017-03-20T03:17:44.839Z,9.83
2017-03-20T03:18:25.406Z,9.82
2017-03-20T03:19:06.095Z,9.91
2017-03-20T03:19:53.532Z,9.84
2017-03-20T03:20:34.216Z,9.91
2017-03-20T03:21:14.785Z,9.84
2017-03-20T03:21:57.480Z,9.91
2017-03-20T03:22:38.168Z,9.95
2017-03-20T03:23:19.793Z,9.84
2017-03-20T03:24:00.369Z,9.83
2017-03-20T03:24:41.066Z,9.84
2017-03-20T03:25:21.713Z,9.91
2017-03-20T03:26:02.303Z,9.89
2017-03-20T03:26:42.870Z,9.82
2017-03-20T03:27:23.519Z,9.89
2017-03-20T03:28:04.109Z,9.92
2017-03-20T03:28:44.710Z,9.8
2017-03-20T03:29:25.282Z,9.83
2017-03-20T03:30:06.021Z,9.79
2017-03-20T03:30:47.652Z,9.87
2017-03-20T03:31:28.240Z,9.83
2017-03-20T03:32:08.804Z,9.86
2017-03-20T03:32:49.457Z,9.84
2017-03-20T03:33:30.063Z,9.77
2017-03-20T03:34:10.652Z,9.77
2017-03-20T03:34:51.239Z,9.84
2017-03-20T03:35:31.872Z,9.83
2017-03-20T03:36:13.538Z,9.84
2017-03-20T03:36:54.227Z,9.82
2017-03-20T03:37:34.848Z,9.77
2017-03-20T03:38:20.102Z,9.83
2017-03-20T03:39:02.705Z,9.82
2017-03-20T03:39:43.352Z,9.86
2017-03-20T03:40:24.067Z,9.79
2017-03-20T03:41:04.682Z,9.86
2017-03-20T03:41:45.335Z,9.82
2017-03-20T03:42:25.975Z,9.87
2017-03-20T03:43:06.623Z,9.8
2017-03-20T03:43:47.276Z,9.79
2017-03-20T03:44:27.952Z,9.84
2017-03-20T03:45:08.597Z,9.82
2017-03-20T03:45:49.229Z,9.82
2017-03-20T03:46:29.788Z,9.77
2017-03-20T03:47:10.468Z,9.87
2017-03-20T03:47:51.083Z,9.84
2017-03-20T03:48:31.636Z,9.82
2017-03-20T03:49:12.289Z,9.82
2017-03-20T03:49:52.933Z,9.82
2017-03-20T03:50:33.588Z,9.79
2017-03-20T03:51:14.248Z,9.82
2017-03-20T03:51:54.893Z,9.82
2017-03-20T03:52:35.550Z,9.84
2017-03-20T03:53:16.204Z,9.84
2017-03-20T03:53:56.857Z,9.74
2017-03-20T03:54:37.504Z,9.82
2017-03-20T03:55:18.085Z,9.83
2017-03-20T03:55:58.738Z,9.83
2017-03-20T03:56:39.380Z,9.79
2017-03-20T03:57:20.023Z,9.79
2017-03-20T03:58:00.722Z,9.83
2017-03-20T03:58:43.417Z,9.8
2017-03-20T03:59:24.052Z,9.79
2017-03-20T04:00:05.710Z,9.8
2017-03-20T04:00:51.205Z,9.82
2017-03-20T04:01:33.880Z,9.77
2017-03-20T04:02:14.529Z,9.8
2017-03-20T04:02:56.125Z,9.76
2017-03-20T04:03:36.771Z,9.82
2017-03-20T04:04:17.426Z,9.79
2017-03-20T04:05:00.137Z,9.76
2017-03-20T04:05:40.714Z,9.76
2017-03-20T04:06:21.307Z,9.79
2017-03-20T04:07:01.876Z,9.69
2017-03-20T04:07:42.522Z,9.8
2017-03-20T04:08:24.136Z,9.82
2017-03-20T04:09:04.738Z,9.8
2017-03-20T04:09:45.315Z,9.79
2017-03-20T04:10:25.952Z,9.77
2017-03-20T04:11:06.596Z,9.8
2017-03-20T04:11:47.144Z,9.77
2017-03-20T04:12:27.830Z,9.74
2017-03-20T04:13:08.457Z,9.76
2017-03-20T04:13:49.004Z,9.76
2017-03-20T04:14:30.601Z,9.84
2017-03-20T04:15:11.227Z,9.73
2017-03-20T04:15:51.788Z,9.73
2017-03-20T04:16:32.456Z,9.83
2017-03-20T04:17:13.094Z,9.79
2017-03-20T04:17:53.755Z,9.74
2017-03-20T04:18:34.401Z,9.74
2017-03-20T04:19:15.055Z,9.64
2017-03-20T04:19:55.714Z,9.73
2017-03-20T04:20:36.300Z,9.74
2017-03-20T04:21:16.899Z,9.79
2017-03-20T04:21:57.480Z,9.76
2017-03-20T04:22:38.135Z,9.8
2017-03-20T04:23:18.816Z,9.68
2017-03-20T04:23:59.408Z,9.72
2017-03-20T04:24:40.004Z,9.76
2017-03-20T04:25:20.634Z,9.8
2017-03-20T04:26:01.226Z,9.72
2017-03-20T04:26:42.838Z,9.74
2017-03-20T04:27:23.410Z,9.79
2017-03-20T04:28:05.100Z,9.79
2017-03-20T04:28:45.672Z,9.79
2017-03-20T04:29:26.269Z,9.8
2017-03-20T04:30:06.842Z,9.77
2017-03-20T04:30:48.547Z,9.77
2017-03-20T04:31:29.113Z,9.74
2017-03-20T04:32:09.703Z,9.68
2017-03-20T04:32:50.259Z,9.77
2017-03-20T04:33:30.910Z,9.74
2017-03-20T04:34:11.508Z,9.77
2017-03-20T04:34:52.109Z,9.84
2017-03-20T04:35:32.663Z,9.84
2017-03-20T04:36:13.342Z,9.79
2017-03-20T04:36:53.972Z,9.79
2017-03-20T04:37:34.550Z,9.8
2017-03-20T04:38:15.190Z,9.84
2017-03-20T04:38:55.823Z,9.79
2017-03-20T04:39:36.398Z,9.82
2017-03-20T04:40:17.045Z,9.79
2017-03-20T04:40:57.627Z,9.8
2017-03-20T04:41:38.336Z,9.86
2017-03-20T04:42:18.914Z,9.87
2017-03-20T04:42:59.568Z,9.86
2017-03-20T04:43:40.257Z,9.86
2017-03-20T04:44:20.838Z,9.84
2017-03-20T04:45:01.427Z,9.87
2017-03-20T04:45:42.085Z,9.87
2017-03-20T04:46:23.671Z,9.87
2017-03-20T04:47:04.270Z,9.86
2017-03-20T04:47:44.855Z,9.87
2017-03-20T04:48:25.489Z,9.87
2017-03-20T04:49:06.087Z,9.84
2017-03-20T04:49:46.677Z,9.86
2017-03-20T04:50:27.334Z,9.87
2017-03-20T04:51:07.989Z,9.87
2017-03-20T04:51:48.646Z,9.83
2017-03-20T04:52:29.288Z,9.87
2017-03-20T04:53:11.890Z,9.84
2017-03-20T04:53:53.563Z,9.84
2017-03-20T04:54:34.217Z,9.89
2017-03-20T04:55:14.874Z,9.84
2017-03-20T04:55:56.558Z,9.84
2017-03-20T04:56:37.202Z,9.82
2017-03-20T04:57:17.850Z,9.82
2017-03-20T04:57:58.508Z,9.86
2017-03-20T04:58:39.170Z,9.86
2017-03-20T04:59:19.812Z,9.84
2017-03-20T05:00:00.469Z,9.89
2017-03-20T05:00:41.036Z,9.86
2017-03-20T05:01:21.688Z,9.87
2017-03-20T05:02:02.323Z,9.86
2017-03-20T05:02:42.896Z,9.86
2017-03-20T05:03:23.566Z,9.87
2017-03-20T05:04:04.182Z,9.86
2017-03-20T05:04:44.747Z,9.86
2017-03-20T05:05:25.397Z,9.86
2017-03-20T05:06:06.056Z,9.84
2017-03-20T05:06:46.708Z,9.84
2017-03-20T05:07:27.362Z,9.83
2017-03-20T05:08:09.097Z,9.83
2017-03-20T05:08:49.731Z,9.83
2017-03-20T05:09:30.340Z,9.82
2017-03-20T05:10:11.001Z,9.8
2017-03-20T05:10:53.649Z,9.83
2017-03-20T05:11:34.249Z,9.79
2017-03-20T05:12:14.903Z,9.82
2017-03-20T05:12:55.555Z,9.79
2017-03-20T05:13:36.198Z,9.83
2017-03-20T05:14:17.789Z,9.83
2017-03-20T05:14:58.443Z,9.82
2017-03-20T05:15:40.105Z,9.82
2017-03-20T05:16:20.769Z,9.8
2017-03-20T05:17:03.353Z,9.83
2017-03-20T05:17:44.016Z,9.8
2017-03-20T05:18:25.686Z,9.79
2017-03-20T05:19:06.381Z,9.77
2017-03-20T05:19:47.023Z,9.74
2017-03-20T05:20:27.652Z,9.77
2017-03-20T05:21:08.316Z,9.76
2017-03-20T05:21:48.954Z,9.84
2017-03-20T05:22:29.617Z,9.77
2017-03-20T05:23:10.276Z,9.79
2017-03-20T05:23:50.911Z,9.84
2017-03-20T05:24:31.590Z,9.76
2017-03-20T05:25:13.302Z,9.79
2017-03-20T05:25:53.911Z,9.79
2017-03-20T05:26:36.536Z,9.76
2017-03-20T05:27:18.184Z,9.79
2017-03-20T05:27:58.840Z,9.8
2017-03-20T05:28:40.520Z,9.76
2017-03-20T05:29:21.150Z,9.73
2017-03-20T05:30:03.853Z,9.79
2017-03-20T05:30:44.533Z,9.74
2017-03-20T05:31:26.211Z,9.76
2017-03-20T05:32:06.857Z,9.76
2017-03-20T05:32:47.534Z,9.82
2017-03-20T05:33:28.158Z,9.77
2017-03-20T05:34:08.815Z,9.82
2017-03-20T05:34:49.473Z,9.74
2017-03-20T05:35:30.128Z,9.74
2017-03-20T05:36:10.750Z,9.83
2017-03-20T05:36:51.357Z,9.79
2017-03-20T05:37:31.976Z,9.77
2017-03-20T05:38:13.625Z,9.83
2017-03-20T05:38:54.205Z,9.74
2017-03-20T05:39:34.867Z,9.82
2017-03-20T05:40:17.531Z,9.72
2017-03-20T05:40:58.184Z,9.77
2017-03-20T05:41:38.735Z,9.76
2017-03-20T05:42:19.389Z,9.77
2017-03-20T05:43:01.990Z,9.77
2017-03-20T05:43:43.665Z,9.74
2017-03-20T05:44:24.320Z,9.82
2017-03-20T05:45:04.967Z,9.74
2017-03-20T05:45:46.648Z,9.74
2017-03-20T05:46:28.326Z,9.76
2017-03-20T05:47:08.978Z,9.82
2017-03-20T05:47:49.629Z,9.74
2017-03-20T05:48:31.204Z,9.74
2017-03-20T05:49:12.902Z,9.74
2017-03-20T05:49:54.555Z,9.74
2017-03-20T05:50:35.124Z,9.72
2017-03-20T05:51:15.785Z,9.77
2017-03-20T05:51:57.387Z,9.76
2017-03-20T05:52:37.985Z,9.76
2017-03-20T05:53:18.561Z,9.79
2017-03-20T05:54:04.110Z,9.77
2017-03-20T05:54:45.736Z,9.82
2017-03-20T05:55:26.335Z,9.76
2017-03-20T05:56:06.900Z,9.76
2017-03-20T05:56:48.483Z,9.77
2017-03-20T05:57:31.121Z,9.77
2017-03-20T05:58:11.715Z,9.73
2017-03-20T05:58:52.298Z,9.76
2017-03-20T05:59:33.960Z,9.8
2017-03-20T06:00:14.546Z,9.8
2017-03-20T06:00:55.157Z,9.82
2017-03-20T06:01:35.821Z,9.79
2017-03-20T06:02:17.506Z,9.77
2017-03-20T06:02:58.125Z,9.82
2017-03-20T06:03:39.729Z,9.74
2017-03-20T06:04:20.377Z,9.83
2017-03-20T06:05:01.023Z,9.89
2017-03-20T06:05:41.685Z,9.83
2017-03-20T06:06:22.359Z,9.82
2017-03-20T06:07:03.011Z,9.83
2017-03-20T06:07:43.765Z,9.83
2017-03-20T06:08:24.513Z,9.83
2017-03-20T06:09:05.088Z,9.8
2017-03-20T06:09:45.692Z,9.8
2017-03-20T06:10:26.355Z,9.92
2017-03-20T06:11:06.950Z,9.91
2017-03-20T06:11:47.543Z,9.91
2017-03-20T06:12:28.134Z,9.92
2017-03-20T06:13:08.775Z,9.87
2017-03-20T06:13:49.359Z,9.87
2017-03-20T06:14:30.058Z,9.84
2017-03-20T06:15:10.619Z,9.87
2017-03-20T06:15:51.283Z,9.91
2017-03-20T06:16:31.927Z,9.87
2017-03-20T06:17:12.570Z,9.87
2017-03-20T06:17:53.214Z,9.84
2017-03-20T06:18:33.895Z,9.86
2017-03-20T06:19:14.538Z,9.82
2017-03-20T06:19:55.206Z,9.89
2017-03-20T06:20:35.825Z,9.87
2017-03-20T06:21:16.392Z,9.8
2017-03-20T06:21:58.304Z,9.89
2017-03-20T06:22:38.969Z,9.86
2017-03-20T06:23:19.549Z,9.92
2017-03-20T06:24:00.133Z,9.91
2017-03-20T06:24:40.773Z,9.84
2017-03-20T06:25:21.330Z,9.87
2017-03-20T06:26:01.998Z,9.84
2017-03-20T06:26:42.574Z,9.84
2017-03-20T06:27:23.178Z,9.91
2017-03-20T06:28:03.751Z,9.83
2017-03-20T06:28:44.396Z,9.87
2017-03-20T06:29:25.152Z,9.87
2017-03-20T06:30:05.786Z,9.84
2017-03-20T06:30:46.445Z,9.86
2017-03-20T06:31:27.111Z,9.84
2017-03-20T06:32:07.744Z,9.84
2017-03-20T06:32:48.389Z,9.92
2017-03-20T06:33:29.092Z,9.84
2017-03-20T06:34:09.708Z,9.86
2017-03-20T06:34:50.299Z,9.87
2017-03-20T06:35:30.933Z,9.89
2017-03-20T06:36:11.516Z,9.84
2017-03-20T06:36:52.111Z,9.87
2017-03-20T06:37:32.675Z,9.89
2017-03-20T06:38:13.334Z,9.89
2017-03-20T06:38:54.024Z,9.82
2017-03-20T06:39:34.624Z,9.87
2017-03-20T06:40:15.195Z,9.86
2017-03-20T06:40:55.842Z,9.89
2017-03-20T06:41:36.511Z,9.98
2017-03-20T06:42:17.163Z,9.91
2017-03-20T06:42:57.815Z,9.95
2017-03-20T06:43:38.465Z,9.99
2017-03-20T06:44:19.107Z,9.97
2017-03-20T06:44:59.776Z,9.94
2017-03-20T06:45:40.396Z,9.99
2017-03-20T06:46:20.958Z,9.94
2017-03-20T06:47:01.630Z,9.99
2017-03-20T06:47:42.252Z,9.97
2017-03-20T06:48:22.832Z,10.01
2017-03-20T06:49:03.483Z,10.02
2017-03-20T06:49:44.111Z,9.94
2017-03-20T06:50:24.686Z,9.99
2017-03-20T06:51:05.345Z,9.99
2017-03-20T06:51:46.006Z,9.99
2017-03-20T06:52:26.638Z,10.04
2017-03-20T06:53:07.289Z,10.02
2017-03-20T06:53:47.955Z,9.98
2017-03-20T06:54:28.610Z,9.97
2017-03-20T06:55:09.268Z,10.02
2017-03-20T06:55:49.885Z,9.98
2017-03-20T06:56:30.465Z,10.07
2017-03-20T06:57:12.138Z,9.98
2017-03-20T06:57:52.765Z,10.01
2017-03-20T06:58:33.339Z,10.02
2017-03-20T06:59:13.995Z,10.02
2017-03-20T06:59:54.622Z,10.1
2017-03-20T07:00:35.175Z,10.04
2017-03-20T07:01:15.841Z,9.97
2017-03-20T07:01:56.493Z,9.99
2017-03-20T07:02:37.157Z,9.99
2017-03-20T07:03:17.805Z,9.99
2017-03-20T07:03:58.441Z,10.05
2017-03-20T07:04:39.100Z,9.97
2017-03-20T07:05:19.747Z,10.04
2017-03-20T07:06:04.960Z,9.99
2017-03-20T07:06:45.552Z,9.99
2017-03-20T07:07:26.112Z,9.98
2017-03-20T07:08:06.788Z,9.98
2017-03-20T07:08:47.379Z,9.98
2017-03-20T07:09:27.957Z,10.05
2017-03-20T07:10:08.519Z,9.98
2017-03-20T07:10:49.191Z,9.97
2017-03-20T07:11:29.874Z,10.02
2017-03-20T07:12:10.467Z,9.97
2017-03-20T07:12:51.047Z,9.98
2017-03-20T07:13:31.704Z,9.98
2017-03-20T07:14:12.284Z,10.05
2017-03-20T07:14:52.876Z,10.04
2017-03-20T07:15:33.462Z,9.97
2017-03-20T07:16:14.101Z,9.99
2017-03-20T07:16:54.687Z,10.02
2017-03-20T07:17:35.280Z,9.98
2017-03-20T07:18:15.838Z,10.01
2017-03-20T07:18:56.503Z,9.98
2017-03-20T07:19:37.101Z,10.15
2017-03-20T07:20:17.691Z,10.15
2017-03-20T07:20:58.342Z,10.12
2017-03-20T07:21:39.003Z,10.1
2017-03-20T07:22:19.649Z,10.09
2017-03-20T07:23:00.305Z,10.13
2017-03-20T07:23:40.958Z,10.07
2017-03-20T07:24:21.611Z,10.2
2017-03-20T07:25:02.265Z,10.2
2017-03-20T07:25:42.916Z,10.19
2017-03-20T07:26:23.570Z,10.23
2017-03-20T07:27:04.223Z,10.25
2017-03-20T07:27:44.878Z,10.13
2017-03-20T07:28:25.523Z,10.16
2017-03-20T07:29:06.180Z,10.31
2017-03-20T07:29:46.836Z,10.33
2017-03-20T07:30:27.486Z,10.25
2017-03-20T07:31:08.069Z,10.15
2017-03-20T07:31:48.704Z,10.28
2017-03-20T07:32:29.371Z,10.28
2017-03-20T07:33:10.016Z,10.22
2017-03-20T07:33:50.684Z,10.25
2017-03-20T07:34:31.329Z,10.26
2017-03-20T07:35:11.977Z,10.25
2017-03-20T07:35:52.608Z,10.17
2017-03-20T07:36:33.185Z,10.26
2017-03-20T07:37:13.834Z,10.28
2017-03-20T07:37:54.461Z,10.33
2017-03-20T07:38:35.048Z,10.17
2017-03-20T07:39:15.698Z,10.25
2017-03-20T07:39:57.349Z,10.16
2017-03-20T07:40:37.936Z,10.19
2017-03-20T07:41:19.598Z,10.2
2017-03-20T07:42:00.240Z,10.07
2017-03-20T07:42:40.901Z,10.13
2017-03-20T07:43:21.550Z,10.09
2017-03-20T07:44:02.203Z,10.07
2017-03-20T07:44:42.910Z,10.17
2017-03-20T07:45:23.544Z,10.2
2017-03-20T07:46:04.211Z,10.22
2017-03-20T07:46:44.803Z,10.22
2017-03-20T07:47:25.374Z,10.23
2017-03-20T07:48:06.025Z,10.19
2017-03-20T07:48:46.702Z,10.1
2017-03-20T07:49:27.307Z,10.16
2017-03-20T07:50:07.873Z,10.2
2017-03-20T07:50:48.537Z,10.22
2017-03-20T07:51:29.164Z,10.22
2017-03-20T07:52:09.743Z,10.16
2017-03-20T07:52:50.387Z,10.17
2017-03-20T07:53:31.017Z,10.19
2017-03-20T07:54:11.604Z,10.2
2017-03-20T07:54:52.252Z,10.17
2017-03-20T07:55:32.871Z,10.17
2017-03-20T07:56:13.531Z,10.15
2017-03-20T07:56:54.281Z,10.16
2017-03-20T07:57:34.936Z,10.22
2017-03-20T07:58:15.593Z,10.16
2017-03-20T08:00:28.852Z,10.23
2017-03-20T08:01:09.432Z,10.23
2017-03-20T08:01:50.038Z,10.22
2017-03-20T08:02:30.730Z,10.22
2017-03-20T08:03:11.320Z,10.31
2017-03-20T08:03:51.892Z,10.26
2017-03-20T08:04:32.544Z,10.34
2017-03-20T08:05:13.237Z,10.3
2017-03-20T08:05:53.794Z,10.35
2017-03-20T08:06:34.410Z,10.38
2017-03-20T08:07:15.034Z,10.37
2017-03-20T08:07:55.644Z,10.33
2017-03-20T08:08:36.246Z,10.35
2017-03-20T08:09:17.925Z,10.31
2017-03-20T08:09:58.496Z,10.37
2017-03-20T08:10:39.136Z,10.38
2017-03-20T08:11:19.770Z,10.37
2017-03-20T08:12:00.342Z,10.41
2017-03-20T08:12:41.027Z,10.51
2017-03-20T08:13:21.709Z,10.48
2017-03-20T08:14:02.311Z,10.51
2017-03-20T08:14:42.943Z,10.48
2017-03-20T08:15:23.618Z,10.46
2017-03-20T08:16:04.269Z,10.51
2017-03-20T08:16:44.925Z,10.49
2017-03-20T08:17:25.582Z,10.46
2017-03-20T08:18:06.217Z,10.46
2017-03-20T08:18:46.893Z,10.54
2017-03-20T08:19:27.537Z,10.46
2017-03-20T08:20:08.157Z,10.49
2017-03-20T08:20:48.827Z,10.44
2017-03-20T08:21:29.522Z,10.51
2017-03-20T08:22:10.134Z,10.48
2017-03-20T08:22:50.793Z,10.38
2017-03-20T08:23:31.440Z,10.41
2017-03-20T08:24:12.094Z,10.46
2017-03-20T08:24:52.771Z,10.38
2017-03-20T08:25:33.405Z,10.4
2017-03-20T08:26:14.097Z,10.35
2017-03-20T08:26:54.792Z,10.34
2017-03-20T08:27:35.366Z,10.28
2017-03-20T08:28:16.076Z,10.28
2017-03-20T08:28:56.701Z,10.31
2017-03-20T08:29:37.305Z,10.31
2017-03-20T08:30:17.857Z,10.35
2017-03-20T08:30:58.510Z,10.41
2017-03-20T08:31:39.156Z,10.37
2017-03-20T08:32:19.724Z,10.35
2017-03-20T08:33:00.284Z,10.42
2017-03-20T08:33:40.865Z,10.4
2017-03-20T08:34:21.464Z,10.37
2017-03-20T08:35:02.016Z,10.44
2017-03-20T08:35:42.659Z,10.4
2017-03-20T08:36:23.233Z,10.41
2017-03-20T08:37:03.797Z,10.37
2017-03-20T08:37:44.413Z,10.4
2017-03-20T08:38:24.985Z,10.48
2017-03-20T08:39:05.576Z,10.4
2017-03-20T08:39:46.148Z,10.53
2017-03-20T08:40:26.743Z,10.53
2017-03-20T08:41:07.314Z,10.49
2017-03-20T08:41:47.890Z,10.53
2017-03-20T08:42:28.466Z,10.46
2017-03-20T08:43:09.034Z,10.48
2017-03-20T08:43:49.565Z,10.48
2017-03-20T08:44:30.145Z,10.49
2017-03-20T08:45:10.719Z,10.53
2017-03-20T08:45:51.280Z,10.54
2017-03-20T08:46:31.837Z,10.54
2017-03-20T08:47:12.417Z,10.56
2017-03-20T08:47:52.984Z,10.56
2017-03-20T08:48:33.559Z,10.56
2017-03-20T08:49:14.117Z,10.57
2017-03-20T08:49:54.692Z,10.61
2017-03-20T08:50:35.254Z,10.61
2017-03-20T08:51:15.836Z,10.74
2017-03-20T08:51:56.421Z,10.63
2017-03-20T08:52:37.005Z,10.63
2017-03-20T08:53:17.575Z,10.64
2017-03-20T08:53:58.145Z,10.67
2017-03-20T08:54:38.715Z,10.61
2017-03-20T08:55:19.332Z,10.53
2017-03-20T08:55:59.931Z,10.68
2017-03-20T08:56:40.492Z,10.64
2017-03-20T08:57:21.034Z,10.67
2017-03-20T08:58:01.764Z,10.67
2017-03-20T08:58:42.366Z,10.64
2017-03-20T08:59:23.038Z,10.68
2017-03-20T09:00:03.550Z,10.63
2017-03-20T09:00:44.201Z,10.71